Time;durP1;ratioP1;P1;durP2;ratioP2;P2;SDS_P1;SDS_P2;PMS_P1;PMS_P2;Temp;Humidity;BMP_temperature;BMP_pressure;BME280_temperature;BME280_humidity;BME280_pressure;Samples;Min_cycle;Max_cycle;Signal;HPM_P1;HPM_P2
2023/05/09 00:02:05;;;;;;;5.38;4.75;;;;;;;11.74;43.60;99782.59;5026321;28;20041;-72
2023/05/09 00:04:32;;;;;;;7.75;5.05;;;;;;;11.98;43.69;99821.13;5024859;28;20041;-72
2023/05/09 00:06:59;;;;;;;7.15;4.82;;;;;;;11.93;43.79;99828.47;5024864;28;20302;-72
2023/05/09 00:09:26;;;;;;;7.18;4.32;;;;;;;11.68;43.94;99785.56;5025451;28;20038;-73
2023/05/09 00:11:53;;;;;;;5.53;4.32;;;;;;;11.69;43.85;99784.63;5025845;28;20116;-72
2023/05/09 00:14:21;;;;;;;6.55;4.88;;;;;;;11.88;44.01;99827.84;5025724;28;20053;-72
2023/05/09 00:16:48;;;;;;;7.22;5.38;;;;;;;11.89;44.03;99816.28;5025390;28;20197;-72
2023/05/09 00:19:14;;;;;;;5.60;4.90;;;;;;;11.67;44.02;99781.19;5025956;28;20049;-72
2023/05/09 00:21:41;;;;;;;7.10;4.70;;;;;;;11.88;44.07;99812.78;5025622;28;20287;-72
2023/05/09 00:24:08;;;;;;;10.02;5.03;;;;;;;11.88;44.13;99810.13;5024758;28;20034;-72
2023/05/09 00:26:34;;;;;;;7.57;6.78;;;;;;;11.87;44.19;99811.06;5025758;28;20092;-72
2023/05/09 00:29:01;;;;;;;8.45;5.85;;;;;;;11.84;44.33;99808.56;5024726;28;20198;-72
2023/05/09 00:31:30;;;;;;;5.78;4.97;;;;;;;11.56;44.52;99760.53;5025551;28;20042;-71
2023/05/09 00:33:57;;;;;;;6.75;5.00;;;;;;;11.79;44.17;99801.78;5025616;28;20061;-72
2023/05/09 00:36:23;;;;;;;7.15;4.68;;;;;;;11.34;44.20;99722.78;5025482;28;20049;-71
2023/05/09 00:38:50;;;;;;;6.60;4.82;;;;;;;11.76;44.41;99804.59;5024600;28;20120;-72
2023/05/09 00:41:17;;;;;;;5.63;4.68;;;;;;;11.75;44.50;99800.25;5025965;28;20316;-72
2023/05/09 00:43:44;;;;;;;5.72;4.80;;;;;;;11.75;44.52;99797.59;5025408;28;20060;-72
2023/05/09 00:46:11;;;;;;;5.70;4.72;;;;;;;10.67;44.68;99617.50;5024547;28;20341;-71
2023/05/09 00:48:40;;;;;;;5.90;4.65;;;;;;;11.69;44.57;99793.44;5027044;28;20319;-72
2023/05/09 00:51:07;;;;;;;6.20;5.50;;;;;;;11.70;44.58;99791.66;5028675;28;20052;-71
2023/05/09 00:53:34;;;;;;;6.45;4.93;;;;;;;11.69;44.75;99800.56;5028282;28;20048;-72
2023/05/09 00:56:01;;;;;;;6.22;5.50;;;;;;;11.70;44.82;99797.81;5029224;28;20321;-71
2023/05/09 00:58:29;;;;;;;5.28;4.78;;;;;;;11.70;44.60;99789.84;5029664;28;20041;-72
2023/05/09 01:00:55;;;;;;;5.95;4.80;;;;;;;11.70;44.75;99784.56;5028284;28;20049;-71
2023/05/09 01:03:23;;;;;;;6.88;5.20;;;;;;;11.66;44.61;99790.97;5029346;28;20042;-71
2023/05/09 01:05:56;;;;;;;6.30;4.93;;;;;;;11.60;45.27;99783.31;5027861;28;20131;-72
2023/05/09 01:08:38;;;;;;;7.30;5.65;;;;;;;11.61;45.21;99787.69;5029232;28;20107;-71
2023/05/09 01:11:10;;;;;;;6.40;4.72;;;;;;;11.32;45.11;99740.59;5028107;28;20120;-72
2023/05/09 01:13:45;;;;;;;6.97;4.68;;;;;;;11.59;45.10;99784.25;5028992;28;20162;-72
2023/05/09 01:16:19;;;;;;;6.68;5.93;;;;;;;11.59;45.00;99778.94;5029355;28;20042;-72
2023/05/09 01:18:51;;;;;;;5.72;5.13;;;;;;;11.59;45.29;99773.63;5029343;28;20233;-72
2023/05/09 01:21:24;;;;;;;5.65;5.05;;;;;;;11.26;45.14;99723.19;5027747;28;20045;-72
2023/05/09 01:24:19;;;;;;;6.15;5.07;;;;;;;11.54;45.95;99775.69;5028650;28;20038;-72
2023/05/09 01:27:03;;;;;;;6.72;5.30;;;;;;;11.49;45.67;99775.06;5028986;28;20050;-72
2023/05/09 01:29:42;;;;;;;6.88;5.32;;;;;;;10.91;46.20;99687.88;5029108;28;20049;-72
2023/05/09 01:32:15;;;;;;;6.35;4.72;;;;;;;11.45;45.53;99781.47;5027647;28;20030;-73
2023/05/09 01:34:44;;;;;;;5.75;4.30;;;;;;;11.18;45.33;99736.84;5029061;28;20072;-73
2023/05/09 01:37:13;;;;;;;6.68;5.28;;;;;;;11.43;45.42;99786.00;5028989;28;20108;-72
2023/05/09 01:39:42;;;;;;;6.03;5.43;;;;;;;11.40;45.32;99779.06;5028660;28;20046;-72
2023/05/09 01:42:11;;;;;;;8.95;5.28;;;;;;;11.36;45.74;99774.84;5011725;28;20049;-72
2023/05/09 01:44:42;;;;;;;4.97;4.47;;;;;;;11.36;45.74;99771.31;5028246;28;20341;-72
2023/05/09 01:47:10;;;;;;;7.30;5.50;;;;;;;11.07;45.76;99725.06;5027712;28;20207;-72
2023/05/09 01:49:38;;;;;;;6.72;4.95;;;;;;;11.34;45.76;99765.25;5028706;28;20056;-72
2023/05/09 01:52:08;;;;;;;5.35;4.70;;;;;;;11.34;45.93;99767.91;5027434;28;20205;-72
2023/05/09 01:54:37;;;;;;;5.15;4.40;;;;;;;11.32;45.83;99767.13;5028327;28;20193;-72
2023/05/09 01:57:06;;;;;;;7.45;5.07;;;;;;;11.31;45.92;99770.69;5028072;28;20185;-72
2023/05/09 01:59:34;;;;;;;7.38;5.05;;;;;;;11.31;45.83;99773.34;5027260;28;20042;-72
2023/05/09 02:02:03;;;;;;;6.22;5.43;;;;;;;11.01;45.97;99715.63;5027139;28;20046;-72
2023/05/09 02:04:30;;;;;;;6.15;4.93;;;;;;;10.64;45.91;99653.00;5027993;28;20089;-72
2023/05/09 02:06:59;;;;;;;4.90;4.40;;;;;;;10.98;46.02;99718.44;5028448;28;20099;-73
2023/05/09 02:09:26;;;;;;;6.18;5.18;;;;;;;11.26;46.06;99770.09;5028144;28;20061;-73
2023/05/09 02:11:53;;;;;;;6.07;5.30;;;;;;;10.97;46.16;99727.34;5027820;28;20052;-72
2023/05/09 02:14:20;;;;;;;5.78;4.57;;;;;;;10.79;46.02;99694.66;5027064;28;20065;-72
2023/05/09 02:16:47;;;;;;;6.60;4.57;;;;;;;11.22;46.19;99772.91;5027459;28;20084;-73
2023/05/09 02:19:16;;;;;;;7.60;4.85;;;;;;;10.95;46.17;99731.00;5027604;28;20141;-73
2023/05/09 02:21:43;;;;;;;5.40;4.43;;;;;;;11.22;46.22;99774.69;5026750;28;20352;-72
2023/05/09 02:24:10;;;;;;;5.40;4.30;;;;;;;10.89;46.36;99725.06;5028098;28;20076;-73
2023/05/09 02:26:37;;;;;;;5.80;4.85;;;;;;;11.16;46.35;99772.34;5026672;28;20042;-73
2023/05/09 02:29:07;;;;;;;5.30;4.80;;;;;;;11.02;46.66;99745.66;5027656;28;20045;-73
2023/05/09 02:31:35;;;;;;;6.43;4.35;;;;;;;11.05;46.47;99756.97;5027677;28;20052;-73
2023/05/09 02:34:03;;;;;;;9.07;4.95;;;;;;;10.68;46.89;99686.34;5027282;28;20356;-73
2023/05/09 02:36:32;;;;;;;5.15;4.65;;;;;;;11.06;47.02;99771.09;5027357;28;20060;-72
2023/05/09 02:39:00;;;;;;;7.13;4.68;;;;;;;11.05;46.88;99772.03;5027279;28;20100;-73
2023/05/09 02:41:27;;;;;;;5.45;4.72;;;;;;;11.05;46.99;99770.25;5026392;28;20042;-73
2023/05/09 02:43:54;;;;;;;5.70;5.18;;;;;;;11.00;47.21;99772.25;5026293;28;20041;-73
2023/05/09 02:46:20;;;;;;;5.90;5.07;;;;;;;10.69;47.29;99719.03;5027415;28;20046;-73
2023/05/09 02:48:48;;;;;;;5.55;4.57;;;;;;;10.78;47.40;99739.81;5025937;28;20050;-73
2023/05/09 02:51:14;;;;;;;5.60;4.57;;;;;;;10.90;47.52;99771.88;5026437;28;20209;-73
2023/05/09 02:53:43;;;;;;;6.40;4.65;;;;;;;10.93;47.50;99768.22;5027472;28;20107;-72
2023/05/09 02:56:09;;;;;;;6.65;5.43;;;;;;;10.64;47.49;99726.34;5027256;28;20335;-73
2023/05/09 02:58:37;;;;;;;5.00;4.50;;;;;;;10.92;47.61;99763.84;5026355;28;20168;-73
2023/05/09 03:01:03;;;;;;;5.50;4.30;;;;;;;10.25;47.61;99666.44;5027423;28;20171;-72
2023/05/09 03:03:32;;;;;;;6.93;4.60;;;;;;;10.91;47.48;99770.06;5025996;28;20209;-73
2023/05/09 03:05:59;;;;;;;6.18;4.70;;;;;;;10.91;47.59;99770.06;5026765;28;20108;-72
2023/05/09 03:08:26;;;;;;;6.85;5.07;;;;;;;10.87;47.58;99765.84;5026733;28;20045;-72
2023/05/09 03:10:54;;;;;;;5.68;4.07;;;;;;;10.55;47.89;99725.00;5026064;28;20092;-73
2023/05/09 03:13:21;;;;;;;7.13;5.18;;;;;;;10.46;48.04;99717.50;5025389;28;20053;-73
2023/05/09 03:15:48;;;;;;;6.82;5.18;;;;;;;10.68;48.25;99770.31;5027163;28;20038;-73
2023/05/09 03:18:14;;;;;;;7.93;4.85;;;;;;;10.64;48.22;99766.97;5026816;28;20059;-73
2023/05/09 03:20:41;;;;;;;7.65;5.25;;;;;;;10.55;48.57;99767.41;5026497;28;20049;-73
2023/05/09 03:23:08;;;;;;;7.15;4.43;;;;;;;10.50;48.54;99757.03;5025604;28;20084;-73
2023/05/09 03:25:35;;;;;;;5.93;4.15;;;;;;;9.24;48.33;99554.75;5026460;28;20042;-73
2023/05/09 03:28:03;;;;;;;4.85;3.78;;;;;;;10.46;48.49;99766.06;5026744;28;20088;-73
2023/05/09 03:30:30;;;;;;;6.72;4.72;;;;;;;10.45;48.58;99759.03;5026336;28;20092;-73
2023/05/09 03:32:57;;;;;;;8.65;6.72;;;;;;;10.46;48.45;99763.41;5026708;28;20052;-71
2023/05/09 03:35:24;;;;;;;7.85;5.30;;;;;;;10.42;48.67;99769.78;5026229;28;20040;-73
2023/05/09 03:37:51;;;;;;;5.85;4.90;;;;;;;9.74;48.87;99670.63;5025424;28;20048;-73
2023/05/09 03:40:18;;;;;;;5.13;4.50;;;;;;;10.33;48.78;99779.97;5025304;28;20042;-73
2023/05/09 03:42:44;;;;;;;8.88;4.85;;;;;;;10.06;49.07;99735.31;5025307;28;20042;-73
2023/05/09 03:45:13;;;;;;;6.55;4.55;;;;;;;9.99;49.28;99723.28;5026628;28;20115;-73
2023/05/09 03:47:40;;;;;;;5.18;4.63;;;;;;;10.17;49.24;99769.25;5025226;28;20084;-73
2023/05/09 03:50:08;;;;;;;5.05;4.43;;;;;;;10.07;49.58;99770.59;5026539;28;20056;-73
2023/05/09 03:52:36;;;;;;;6.97;4.80;;;;;;;9.73;49.61;99727.16;5025129;28;20091;-73
2023/05/09 03:55:02;;;;;;;5.72;4.75;;;;;;;9.89;49.89;99775.81;5024989;28;20034;-73
2023/05/09 03:57:29;;;;;;;7.75;5.22;;;;;;;9.83;50.08;99776.09;5025108;28;20046;-72
2023/05/09 03:59:56;;;;;;;7.10;4.70;;;;;;;9.81;50.06;99774.44;5026125;28;20049;-73
2023/05/09 04:02:24;;;;;;;5.55;4.90;;;;;;;9.54;50.20;99728.91;5025842;28;20045;-73
2023/05/09 04:04:51;;;;;;;6.13;4.18;;;;;;;9.82;50.04;99774.38;5026345;28;20037;-72
2023/05/09 04:07:19;;;;;;;6.90;4.70;;;;;;;9.57;50.12;99760.53;5026303;28;20050;-73
2023/05/09 04:09:46;;;;;;;6.50;5.28;;;;;;;9.53;50.21;99735.13;5024900;28;20237;-73
2023/05/09 04:12:13;;;;;;;5.38;4.85;;;;;;;9.83;50.08;99777.88;5026258;28;20045;-72
2023/05/09 04:14:39;;;;;;;5.88;5.28;;;;;;;9.68;50.09;99754.75;5026167;28;20057;-72
2023/05/09 04:17:06;;;;;;;5.70;4.88;;;;;;;9.84;50.12;99782.25;5025496;28;20309;-73
2023/05/09 04:19:34;;;;;;;8.20;4.68;;;;;;;9.53;50.20;99728.06;5025734;28;20054;-73
2023/05/09 04:22:01;;;;;;;8.45;5.32;;;;;;;9.84;50.23;99775.16;5025517;28;20160;-73
2023/05/09 04:24:28;;;;;;;7.05;5.13;;;;;;;9.59;50.09;99733.06;5023992;28;20092;-72
2023/05/09 04:26:55;;;;;;;5.32;4.57;;;;;;;9.92;49.97;99780.97;5024882;28;20060;-73
2023/05/09 04:29:21;;;;;;;6.80;4.85;;;;;;;9.99;50.00;99778.03;5024478;28;20046;-73
2023/05/09 04:31:48;;;;;;;7.13;4.78;;;;;;;9.72;50.07;99735.16;5024621;28;20074;-73
2023/05/09 04:34:15;;;;;;;7.28;5.40;;;;;;;9.59;50.24;99719.84;5025514;28;20048;-72
2023/05/09 04:36:43;;;;;;;6.78;5.18;;;;;;;9.52;50.48;99726.34;5025931;28;20120;-72
2023/05/09 04:39:10;;;;;;;6.97;5.28;;;;;;;9.78;50.55;99782.53;5025997;28;20041;-73
2023/05/09 04:41:37;;;;;;;6.45;4.80;;;;;;;9.44;50.48;99719.66;5024373;28;20105;-72
2023/05/09 04:44:03;;;;;;;5.22;4.72;;;;;;;9.84;50.43;99776.94;5024429;28;20088;-72
2023/05/09 04:46:30;;;;;;;7.15;4.75;;;;;;;9.84;50.53;99782.25;5024463;28;20049;-72
2023/05/09 04:48:57;;;;;;;6.93;5.30;;;;;;;9.81;50.49;99774.44;5024631;28;20041;-72
2023/05/09 04:51:24;;;;;;;6.75;5.20;;;;;;;9.85;50.58;99776.88;5025519;28;20197;-73
2023/05/09 04:53:52;;;;;;;6.70;5.60;;;;;;;9.63;50.54;99736.44;5025215;28;20042;-72
2023/05/09 04:56:18;;;;;;;6.45;5.45;;;;;;;9.64;50.44;99738.16;5025096;28;20048;-73
2023/05/09 04:58:45;;;;;;;6.07;5.40;;;;;;;9.91;50.53;99784.53;5024339;28;20041;-73
2023/05/09 05:01:12;;;;;;;6.40;5.45;;;;;;;9.61;50.49;99731.22;5024679;28;20053;-73
2023/05/09 05:03:39;;;;;;;5.80;4.55;;;;;;;8.81;50.30;99586.69;5025504;28;20042;-73
2023/05/09 05:06:06;;;;;;;6.93;5.38;;;;;;;9.96;50.26;99768.44;5024908;28;20050;-73
2023/05/09 05:08:33;;;;;;;6.47;4.97;;;;;;;9.73;50.20;99732.44;5024339;28;20049;-72
2023/05/09 05:11:01;;;;;;;5.20;4.70;;;;;;;9.60;50.12;99707.47;5025099;28;20045;-73
2023/05/09 05:13:28;;;;;;;6.43;4.63;;;;;;;10.00;50.11;99777.09;5024139;28;20117;-73
2023/05/09 05:15:55;;;;;;;13.80;4.90;;;;;;;10.01;49.97;99770.88;5024211;28;20042;-73
2023/05/09 05:18:22;;;;;;;6.50;4.90;;;;;;;10.05;49.91;99778.63;5024486;28;20092;-73
2023/05/09 05:20:49;;;;;;;5.38;4.68;;;;;;;10.10;49.76;99779.25;5023893;28;20057;-73
2023/05/09 05:23:15;;;;;;;6.05;5.10;;;;;;;9.84;49.66;99734.59;5025504;28;20202;-73
2023/05/09 05:25:42;;;;;;;4.80;4.20;;;;;;;9.43;49.75;99675.63;5024089;28;20080;-74
2023/05/09 05:28:10;;;;;;;7.95;4.90;;;;;;;9.83;49.57;99740.81;5024115;28;20237;-73
2023/05/09 05:30:37;;;;;;;6.20;4.63;;;;;;;10.09;49.47;99777.53;5025464;28;20049;-73
2023/05/09 05:33:03;;;;;;;8.43;5.30;;;;;;;10.09;49.46;99777.53;5025181;28;20213;-73
2023/05/09 05:35:30;;;;;;;5.28;4.60;;;;;;;10.04;49.33;99776.91;5027875;28;20317;-73
2023/05/09 05:37:57;;;;;;;10.98;5.60;;;;;;;9.41;49.35;99699.50;5027428;28;20315;-73
2023/05/09 05:40:23;;;;;;;6.65;4.65;;;;;;;9.73;49.08;99727.16;5028183;28;20112;-73
2023/05/09 05:42:50;;;;;;;6.20;5.55;;;;;;;9.98;49.33;99763.94;5028620;28;20045;-73
2023/05/09 05:45:19;;;;;;;5.63;4.93;;;;;;;9.75;49.23;99725.28;5027384;28;20237;-73
2023/05/09 05:47:45;;;;;;;5.95;4.90;;;;;;;10.06;49.35;99771.53;5028212;28;20099;-73
2023/05/09 05:50:12;;;;;;;6.80;5.05;;;;;;;9.05;49.07;99614.66;5027758;28;20205;-73
2023/05/09 05:52:40;;;;;;;5.85;4.93;;;;;;;10.05;49.01;99770.66;5028324;28;20053;-73
2023/05/09 05:55:07;;;;;;;6.43;4.70;;;;;;;10.03;49.05;99763.72;5027682;28;20045;-73
2023/05/09 05:57:36;;;;;;;5.03;4.25;;;;;;;10.04;49.21;99768.09;5028608;28;20045;-72
2023/05/09 06:00:05;;;;;;;4.68;4.15;;;;;;;10.08;48.97;99767.03;5028088;28;20109;-73
2023/05/09 06:02:33;;;;;;;4.13;3.60;;;;;;;9.98;49.23;99733.94;5027829;28;20059;-73
2023/05/09 06:05:00;;;;;;;4.97;4.22;;;;;;;9.89;48.84;99720.22;5028403;28;20092;-73
2023/05/09 06:07:27;;;;;;;4.70;4.03;;;;;;;10.19;48.85;99772.66;5028021;28;20197;-72
2023/05/09 06:09:54;;;;;;;4.32;3.90;;;;;;;10.23;49.26;99766.31;5028063;28;20084;-73
2023/05/09 06:12:21;;;;;;;5.57;4.20;;;;;;;10.25;48.84;99767.94;5026415;28;20038;-74
2023/05/09 06:14:47;;;;;;;9.25;4.50;;;;;;;9.86;48.69;99699.19;5028175;28;20053;-73
2023/05/09 06:17:14;;;;;;;5.88;4.53;;;;;;;10.26;48.79;99766.16;5027641;28;20177;-73
2023/05/09 06:19:42;;;;;;;6.57;5.18;;;;;;;10.30;48.87;99757.13;5027359;28;20170;-73
2023/05/09 06:22:09;;;;;;;7.45;4.60;;;;;;;10.25;49.12;99751.19;5027697;28;20073;-72
2023/05/09 06:24:35;;;;;;;9.15;4.20;;;;;;;10.01;48.91;99710.84;5027557;28;20101;-73
2023/05/09 06:27:02;;;;;;;12.30;5.07;;;;;;;10.32;48.96;99757.06;5027645;28;20045;-73
2023/05/09 06:29:29;;;;;;;4.88;3.78;;;;;;;10.15;48.67;99712.84;5027723;28;20100;-73
2023/05/09 06:31:56;;;;;;;5.43;3.95;;;;;;;10.18;48.63;99702.94;5027525;28;20038;-73
2023/05/09 06:34:22;;;;;;;8.65;5.38;;;;;;;10.57;48.57;99762.88;5026501;28;20050;-73
2023/05/09 06:36:50;;;;;;;5.00;4.30;;;;;;;10.64;48.26;99755.50;5026497;28;20049;-73
2023/05/09 06:39:17;;;;;;;5.57;4.15;;;;;;;10.75;48.10;99747.88;5027567;28;20060;-73
2023/05/09 06:41:44;;;;;;;8.32;4.18;;;;;;;10.88;48.01;99743.72;5027406;28;20104;-73
2023/05/09 06:44:10;;;;;;;4.50;3.75;;;;;;;11.01;47.77;99746.59;5026006;28;20104;-73
2023/05/09 06:46:37;;;;;;;5.95;4.03;;;;;;;10.93;47.65;99709.00;5026614;28;20046;-73
2023/05/09 06:49:04;;;;;;;4.22;3.80;;;;;;;11.30;47.27;99751.28;5026130;28;20038;-73
2023/05/09 06:51:31;;;;;;;6.35;4.32;;;;;;;11.37;47.22;99743.84;5027280;28;20045;-73
2023/05/09 06:53:59;;;;;;;5.05;4.22;;;;;;;11.48;47.25;99746.81;5026866;28;20094;-73
2023/05/09 06:56:26;;;;;;;6.93;4.20;;;;;;;11.63;46.93;99737.16;5025921;28;20048;-73
2023/05/09 06:58:53;;;;;;;6.35;4.32;;;;;;;11.72;46.73;99736.69;5027107;28;20046;-73
2023/05/09 07:01:20;;;;;;;5.20;3.83;;;;;;;11.96;46.37;99731.84;5027091;28;20332;-73
2023/05/09 07:03:47;;;;;;;7.28;5.47;;;;;;;12.27;45.60;99723.06;5026335;28;20182;-72
2023/05/09 07:06:14;;;;;;;7.30;4.00;;;;;;;12.40;45.47;99724.97;5027250;28;20053;-73
2023/05/09 07:08:41;;;;;;;6.70;5.30;;;;;;;12.52;45.41;99723.41;5026571;28;20055;-73
2023/05/09 07:11:09;;;;;;;5.13;4.18;;;;;;;12.22;45.01;99659.56;5026815;28;20069;-73
2023/05/09 07:13:36;;;;;;;5.60;4.10;;;;;;;12.71;44.96;99725.84;5025720;28;20042;-73
2023/05/09 07:16:02;;;;;;;6.72;3.95;;;;;;;12.57;44.72;99676.13;5025998;28;20048;-73
2023/05/09 07:18:29;;;;;;;4.85;3.90;;;;;;;12.63;44.63;99681.09;5025435;28;20038;-73
2023/05/09 07:20:56;;;;;;;4.75;4.22;;;;;;;12.98;44.60;99720.72;5026394;28;20081;-73
2023/05/09 07:23:24;;;;;;;6.32;3.95;;;;;;;13.06;44.57;99721.13;5026272;28;20108;-73
2023/05/09 07:25:56;;;;;;;5.85;5.25;;;;;;;12.94;44.10;99712.06;5025403;28;20038;-73
2023/05/09 07:28:24;;;;;;;6.30;4.80;;;;;;;12.91;44.61;99677.66;5026565;28;20302;-73
2023/05/09 07:30:51;;;;;;;5.40;4.10;;;;;;;13.26;44.33;99714.59;5026029;28;20100;-73
2023/05/09 07:33:18;;;;;;;6.47;4.18;;;;;;;13.58;43.62;99723.31;5026076;28;20284;-73
2023/05/09 07:35:45;;;;;;;7.72;4.13;;;;;;;13.56;43.50;99719.91;5025309;28;20038;-74
2023/05/09 07:38:13;;;;;;;5.40;4.15;;;;;;;13.43;43.86;99709.16;5025337;28;20096;-73
2023/05/09 07:40:40;;;;;;;5.03;4.35;;;;;;;13.37;44.10;99706.81;5026466;28;20324;-72
2023/05/09 07:43:07;;;;;;;6.95;4.13;;;;;;;13.19;43.89;99671.53;5026350;28;20104;-73
2023/05/09 07:45:35;;;;;;;5.43;4.25;;;;;;;13.65;43.62;99698.88;5025202;28;20262;-73
2023/05/09 07:48:02;;;;;;;7.18;4.43;;;;;;;13.74;43.64;99698.31;5026618;28;20042;-73
2023/05/09 07:50:29;;;;;;;6.00;4.65;;;;;;;13.94;43.26;99691.72;5025936;28;20166;-73
2023/05/09 07:52:55;;;;;;;6.53;4.32;;;;;;;13.68;42.88;99641.91;5026278;28;20069;-74
2023/05/09 07:55:22;;;;;;;5.90;4.70;;;;;;;13.74;43.20;99658.34;5025844;28;20109;-73
2023/05/09 07:57:49;;;;;;;5.13;3.95;;;;;;;13.76;42.73;99642.28;5026309;28;20053;-74
2023/05/09 08:00:17;;;;;;;5.70;4.25;;;;;;;14.08;42.48;99693.50;5025645;28;20050;-73
2023/05/09 08:02:45;;;;;;;5.47;4.18;;;;;;;14.13;42.97;99678.06;5025707;28;20286;-73
2023/05/09 08:05:12;;;;;;;5.32;4.47;;;;;;;13.96;42.73;99643.66;5025714;28;20064;-74
2023/05/09 08:07:39;;;;;;;6.05;4.45;;;;;;;14.18;42.80;99669.78;5025905;28;20052;-73
2023/05/09 08:10:07;;;;;;;6.07;3.60;;;;;;;14.00;42.84;99629.19;5025649;28;20042;-73
2023/05/09 08:12:33;;;;;;;8.02;3.90;;;;;;;14.21;42.47;99680.25;5025644;28;20058;-74
2023/05/09 08:15:00;;;;;;;7.10;4.45;;;;;;;13.94;42.96;99632.25;5025864;28;20042;-74
2023/05/09 08:17:27;;;;;;;6.90;4.25;;;;;;;14.00;42.83;99639.84;5026118;28;20045;-74
2023/05/09 08:19:55;;;;;;;4.78;3.97;;;;;;;14.32;42.58;99675.91;5025407;28;20107;-73
2023/05/09 08:22:21;;;;;;;4.95;3.83;;;;;;;14.18;42.17;99612.00;5025838;28;20233;-73
2023/05/09 08:24:48;;;;;;;5.82;4.05;;;;;;;14.55;42.31;99623.72;5026046;28;20362;-73
2023/05/09 08:27:15;;;;;;;5.25;3.80;;;;;;;14.99;41.69;99657.28;5024641;28;20263;-74
2023/05/09 08:29:42;;;;;;;4.88;3.38;;;;;;;15.18;41.77;99662.19;5026122;28;20049;-73
2023/05/09 08:32:09;;;;;;;6.28;3.83;;;;;;;15.07;41.33;99612.22;5024880;28;20048;-74
2023/05/09 08:34:36;;;;;;;5.60;4.00;;;;;;;15.10;40.99;99629.84;5025691;28;20040;-74
2023/05/09 08:37:04;;;;;;;4.63;3.50;;;;;;;14.86;40.75;99619.91;5025556;28;20042;-73
2023/05/09 08:39:33;;;;;;;4.63;3.55;;;;;;;15.12;41.78;99654.63;5025398;28;20041;-74
2023/05/09 08:42:01;;;;;;;7.45;4.05;;;;;;;14.31;41.28;99529.38;5025532;28;20047;-74
2023/05/09 08:44:30;;;;;;;5.85;4.82;;;;;;;15.01;41.45;99660.69;5025463;28;20304;-73
2023/05/09 08:47:00;;;;;;;5.50;3.70;;;;;;;15.11;41.77;99667.09;5025199;28;20289;-74
2023/05/09 08:49:27;;;;;;;4.95;3.67;;;;;;;14.89;41.37;99601.00;5025616;28;20042;-73
2023/05/09 08:51:54;;;;;;;6.32;4.38;;;;;;;14.63;40.97;99553.91;5025244;28;20105;-73
2023/05/09 08:54:23;;;;;;;4.07;3.63;;;;;;;14.97;41.29;99603.16;5025276;28;20356;-73
2023/05/09 08:56:50;;;;;;;5.78;4.00;;;;;;;15.21;41.52;99644.16;5025173;28;20050;-74
2023/05/09 08:59:18;;;;;;;6.45;4.28;;;;;;;15.04;41.66;99645.31;5025489;28;20204;-74
2023/05/09 09:01:45;;;;;;;5.88;4.13;;;;;;;14.96;41.72;99644.13;5025487;28;20187;-73
2023/05/09 09:04:12;;;;;;;4.75;4.22;;;;;;;14.90;41.76;99637.41;5024258;28;20045;-74
2023/05/09 09:06:40;;;;;;;10.07;4.30;;;;;;;14.02;41.82;99467.38;5025636;28;20101;-74
2023/05/09 09:09:08;;;;;;;7.18;4.32;;;;;;;14.90;41.83;99593.84;5026157;28;20042;-74
2023/05/09 09:11:37;;;;;;;5.93;3.78;;;;;;;15.31;41.30;99629.19;5028668;28;20034;-74
2023/05/09 09:14:10;;;;;;;6.28;4.07;;;;;;;15.38;41.04;99624.28;5027933;28;20034;-74
2023/05/09 09:16:38;;;;;;;6.57;4.22;;;;;;;15.22;40.94;99599.63;5028860;28;20341;-74
2023/05/09 09:19:09;;;;;;;4.90;3.95;;;;;;;15.25;41.09;99581.56;5028687;28;20229;-74
2023/05/09 09:21:36;;;;;;;5.18;3.80;;;;;;;15.63;41.32;99618.91;5028298;28;20306;-74
2023/05/09 09:24:05;;;;;;;4.63;3.58;;;;;;;15.84;40.56;99611.19;5027713;28;20046;-73
2023/05/09 09:26:32;;;;;;;6.22;4.00;;;;;;;15.71;40.75;99587.16;5029090;28;20037;-73
2023/05/09 09:29:00;;;;;;;6.45;4.47;;;;;;;15.99;40.30;99610.06;5028514;28;20052;-74
2023/05/09 09:31:31;;;;;;;5.57;4.18;;;;;;;16.08;39.89;99624.56;5027509;28;20056;-73
2023/05/09 09:34:02;;;;;;;7.07;3.85;;;;;;;16.01;40.21;99621.50;5028275;28;20046;-74
2023/05/09 09:36:31;;;;;;;4.70;4.00;;;;;;;16.04;40.39;99628.44;5028529;28;20050;-74
2023/05/09 09:39:00;;;;;;;8.57;4.57;;;;;;;15.79;40.35;99577.75;5028217;28;20049;-73
2023/05/09 09:41:31;;;;;;;5.03;3.88;;;;;;;15.98;40.22;99604.81;5027247;28;20056;-74
2023/05/09 09:44:05;;;;;;;6.65;3.90;;;;;;;15.67;40.29;99537.59;5028456;28;20060;-73
2023/05/09 09:46:41;;;;;;;7.78;4.30;;;;;;;15.89;39.25;99570.75;5028368;28;20048;-73
2023/05/09 09:49:09;;;;;;;10.05;4.18;;;;;;;15.48;40.27;99505.13;5028120;28;20053;-74
2023/05/09 09:51:36;;;;;;;6.68;4.45;;;;;;;16.08;40.19;99551.53;5027574;28;20042;-74
2023/05/09 09:54:03;;;;;;;5.25;3.72;;;;;;;16.45;40.14;99598.59;5028193;28;20042;-74
2023/05/09 09:56:44;;;;;;;5.85;4.13;;;;;;;16.32;38.96;99600.50;5028327;28;20053;-74
2023/05/09 09:59:14;;;;;;;4.70;3.60;;;;;;;15.37;40.36;99468.53;5027795;28;20042;-74
2023/05/09 10:01:55;;;;;;;6.93;4.85;;;;;;;16.19;39.66;99594.38;5027062;28;20046;-74
2023/05/09 10:04:21;;;;;;;5.10;3.65;;;;;;;15.93;40.01;99559.72;5027345;28;20179;-73
2023/05/09 10:06:53;;;;;;;5.10;4.18;;;;;;;16.26;39.48;99593.78;5026742;28;20034;-73
2023/05/09 10:09:21;;;;;;;7.22;4.35;;;;;;;16.39;39.87;99592.88;5027927;28;20163;-73
2023/05/09 10:11:50;;;;;;;6.05;3.65;;;;;;;16.14;39.75;99522.50;5027711;28;20041;-73
2023/05/09 10:14:19;;;;;;;5.10;3.90;;;;;;;16.34;39.71;99542.41;5026727;28;20057;-72
2023/05/09 10:16:48;;;;;;;6.13;4.32;;;;;;;16.31;39.58;99518.56;5027972;28;20092;-73
2023/05/09 10:19:18;;;;;;;6.13;4.07;;;;;;;16.67;39.62;99582.66;5027604;28;20048;-74
2023/05/09 10:21:50;;;;;;;7.07;4.10;;;;;;;16.62;39.70;99581.28;5026091;28;20072;-73
2023/05/09 10:24:20;;;;;;;5.38;4.40;;;;;;;16.64;39.80;99565.94;5027531;28;20048;-73
2023/05/09 10:26:50;;;;;;;8.38;4.90;;;;;;;16.39;39.62;99509.94;5027553;28;20045;-72
2023/05/09 10:29:23;;;;;;;7.18;4.43;;;;;;;16.58;39.52;99542.34;5027760;28;20293;-73
2023/05/09 10:31:55;;;;;;;5.97;4.78;;;;;;;16.75;39.34;99568.69;5027099;28;20302;-73
2023/05/09 10:34:25;;;;;;;6.28;4.30;;;;;;;16.74;39.36;99556.28;5026514;28;20046;-72
2023/05/09 10:36:53;;;;;;;6.63;4.65;;;;;;;16.85;39.90;99561.66;5026192;28;20137;-73
2023/05/09 10:39:23;;;;;;;6.50;4.18;;;;;;;16.89;39.82;99555.09;5026034;28;20037;-73
2023/05/09 10:41:51;;;;;;;8.95;4.55;;;;;;;16.89;39.30;99560.44;5027118;28;20045;-73
2023/05/09 10:44:19;;;;;;;5.85;4.60;;;;;;;16.82;39.51;99553.88;5027486;28;20053;-73
2023/05/09 10:46:46;;;;;;;6.93;5.00;;;;;;;16.82;39.74;99537.81;5027556;28;20178;-73
2023/05/09 10:49:13;;;;;;;6.50;4.63;;;;;;;15.78;39.87;99347.06;5027095;28;20046;-73
2023/05/09 10:51:40;;;;;;;6.68;4.50;;;;;;;17.01;39.80;99529.19;5026873;28;20189;-73
2023/05/09 10:54:14;;;;;;;6.85;3.92;;;;;;;17.11;39.24;99522.13;5027488;28;20045;-73
2023/05/09 10:56:40;;;;;;;5.68;4.57;;;;;;;17.17;39.47;99518.94;5026617;28;20042;-73
2023/05/09 10:59:36;;;;;;;7.63;4.88;;;;;;;17.15;38.37;99555.72;5026637;28;20045;-73
2023/05/09 11:02:04;;;;;;;5.00;4.50;;;;;;;17.02;39.33;99538.06;5025809;28;20152;-73
2023/05/09 11:04:31;;;;;;;7.22;4.60;;;;;;;16.57;39.32;99495.16;5025957;28;20332;-73
2023/05/09 11:06:59;;;;;;;5.75;4.18;;;;;;;16.72;40.10;99522.56;5026609;28;20030;-73
2023/05/09 11:09:32;;;;;;;4.38;3.65;;;;;;;16.83;40.10;99534.16;5025530;28;20054;-73
2023/05/09 11:12:07;;;;;;;5.22;4.28;;;;;;;16.96;39.79;99516.16;5026311;28;20049;-73
2023/05/09 11:14:41;;;;;;;5.38;3.78;;;;;;;17.11;39.13;99510.56;5026217;28;20238;-72
2023/05/09 11:17:09;;;;;;;5.22;4.18;;;;;;;17.17;39.36;99520.78;5026019;28;20106;-73
2023/05/09 11:19:39;;;;;;;4.65;3.60;;;;;;;17.19;39.18;99502.75;5025998;28;20060;-73
2023/05/09 11:22:15;;;;;;;5.35;4.07;;;;;;;16.80;38.75;99421.13;5025177;28;20092;-73
2023/05/09 11:24:47;;;;;;;5.10;4.60;;;;;;;17.11;38.79;99503.38;5026132;28;20050;-73
2023/05/09 11:27:20;;;;;;;6.20;4.25;;;;;;;17.00;39.65;99512.25;5025963;28;20042;-73
2023/05/09 11:29:51;;;;;;;4.75;3.90;;;;;;;17.00;39.12;99500.69;5026219;28;20050;-74
2023/05/09 11:32:18;;;;;;;4.60;3.55;;;;;;;16.94;39.66;99501.19;5026381;28;20045;-73
2023/05/09 11:34:46;;;;;;;5.50;4.55;;;;;;;16.74;39.38;99462.63;5026537;28;20089;-72
2023/05/09 11:37:16;;;;;;;4.55;3.50;;;;;;;17.02;39.78;99497.91;5026494;28;20050;-73
2023/05/09 11:39:57;;;;;;;5.53;4.13;;;;;;;16.80;38.85;99456.78;5026029;28;20042;-73